Time;durP1;ratioP1;P1;durP2;ratioP2;P2;SDS_P1;SDS_P2;PMS_P1;PMS_P2;Temp;Humidity;BMP_temperature;BMP_pressure;BME280_temperature;BME280_humidity;BME280_pressure;Samples;Min_cycle;Max_cycle;Signal;HPM_P1;HPM_P2
2022/08/12 00:44:23;;;;;;;1.45;1.17;;;25.00;38.70;;;;;;5042211;28;20035;-39
2022/08/12 00:46:55;;;;;;;2.60;1.20;;;25.20;38.90;;;;;;5038619;28;20033;-40
2022/08/12 00:49:23;;;;;;;2.30;0.95;;;25.30;39.30;;;;;;5044026;28;20067;-40
2022/08/12 00:52:07;;;;;;;1.77;1.38;;;25.40;39.50;;;;;;5043396;28;20077;-40
2022/08/12 00:54:39;;;;;;;3.53;1.30;;;25.50;39.60;;;;;;5043118;28;20082;-40
2022/08/12 00:57:15;;;;;;;1.35;1.25;;;25.50;39.60;;;;;;5046725;28;20041;-43
2022/08/12 00:59:48;;;;;;;1.73;1.33;;;25.60;39.80;;;;;;5044454;28;20040;-39
2022/08/12 01:02:24;;;;;;;1.50;1.40;;;25.70;39.90;;;;;;5040970;28;20108;-45
2022/08/12 01:13:13;;;;;;;2.35;1.23;;;25.80;40.30;;;;;;5043835;28;20128;-45
2022/08/12 01:15:40;;;;;;;1.58;1.20;;;25.80;40.30;;;;;;5055368;28;20025;-39
2022/08/12 01:18:05;;;;;;;2.28;1.27;;;25.80;40.50;;;;;;5055346;28;20029;-39
2022/08/12 01:20:52;;;;;;;1.70;1.10;;;25.80;40.50;;;;;;5054568;28;20496;-39
2022/08/12 01:23:36;;;;;;;1.73;1.15;;;25.80;40.50;;;;;;5054950;28;20032;-40
2022/08/12 01:26:05;;;;;;;1.90;1.38;;;25.80;40.60;;;;;;5052059;28;20025;-40
2022/08/12 01:28:33;;;;;;;1.92;1.25;;;25.80;40.70;;;;;;5054505;28;20525;-39
2022/08/12 01:31:03;;;;;;;1.63;1.20;;;25.90;40.70;;;;;;5055353;28;20032;-39
2022/08/12 01:33:36;;;;;;;1.48;1.05;;;25.90;40.70;;;;;;5054500;28;20021;-39
2022/08/12 01:36:03;;;;;;;1.83;1.30;;;25.90;40.80;;;;;;5054994;28;20124;-40
2022/08/12 01:38:32;;;;;;;2.25;1.15;;;25.90;40.80;;;;;;5054362;28;20068;-40
2022/08/12 01:41:00;;;;;;;2.00;1.25;;;25.90;40.80;;;;;;5050023;28;20043;-39
2022/08/12 01:43:27;;;;;;;1.25;1.05;;;25.90;40.90;;;;;;5054097;28;20394;-40
2022/08/12 01:46:13;;;;;;;1.63;1.38;;;25.90;40.90;;;;;;5059584;28;20059;-39
2022/08/12 01:48:42;;;;;;;2.38;1.40;;;26.00;41.10;;;;;;5055994;28;20029;-39
2022/08/12 01:51:41;;;;;;;2.28;1.30;;;26.00;41.20;;;;;;5054849;28;20431;-39
2022/08/12 01:54:12;;;;;;;1.40;1.17;;;26.00;41.10;;;;;;5054931;28;20017;-40
2022/08/12 01:56:57;;;;;;;1.90;1.42;;;26.00;41.10;;;;;;5053909;28;20086;-40
2022/08/12 01:59:48;;;;;;;2.20;1.10;;;26.00;41.20;;;;;;5051654;28;20128;-40
2022/08/12 02:02:25;;;;;;;1.52;1.15;;;26.00;41.30;;;;;;5054704;28;20029;-43
2022/08/12 02:11:22;;;;;;;1.42;1.02;;;26.00;41.30;;;;;;5054442;28;20455;-40
2022/08/12 02:14:10;;;;;;;1.30;1.15;;;26.00;41.40;;;;;;5055024;28;20401;-39
2022/08/12 02:16:49;;;;;;;1.45;1.10;;;26.00;41.40;;;;;;5039661;28;20118;-40
2022/08/12 02:19:36;;;;;;;2.80;1.40;;;26.10;41.50;;;;;;5053931;28;20033;-46
2022/08/12 02:22:32;;;;;;;2.70;1.35;;;26.10;41.50;;;;;;5054184;28;20035;-39
2022/08/12 02:25:33;;;;;;;1.45;1.10;;;26.00;41.50;;;;;;5054467;28;20025;-39
2022/08/12 02:27:59;;;;;;;1.42;1.25;;;26.10;41.60;;;;;;5040546;28;20539;-40
2022/08/12 02:30:30;;;;;;;3.22;1.38;;;26.10;41.60;;;;;;5053334;28;20120;-40
2022/08/12 02:32:58;;;;;;;1.42;1.00;;;26.10;41.70;;;;;;5051252;28;20436;-40
2022/08/12 02:35:29;;;;;;;2.22;1.55;;;26.10;41.70;;;;;;5053375;28;20062;-40
2022/08/12 02:37:57;;;;;;;1.50;1.30;;;26.10;41.70;;;;;;5053659;28;20039;-39
2022/08/12 02:40:26;;;;;;;2.55;1.33;;;26.10;41.60;;;;;;5053273;28;20044;-42
2022/08/12 02:43:07;;;;;;;2.03;1.30;;;25.90;40.00;;;;;;5041158;28;20041;-39
2022/08/12 02:45:41;;;;;;;2.25;1.20;;;25.80;39.80;;;;;;5054854;28;20466;-39
2022/08/12 02:48:13;;;;;;;2.30;1.67;;;25.70;39.70;;;;;;5063895;28;20028;-39
2022/08/12 02:50:45;;;;;;;2.70;1.50;;;25.60;39.60;;;;;;5048243;28;20158;-40
2022/08/12 02:53:12;;;;;;;2.13;1.38;;;25.60;39.70;;;;;;5053842;28;20037;-39
2022/08/12 02:55:38;;;;;;;5.30;1.33;;;25.50;39.70;;;;;;5053008;28;20074;-40
2022/08/12 02:58:06;;;;;;;2.63;1.48;;;25.50;39.80;;;;;;5053560;28;20067;-39
2022/08/12 03:00:33;;;;;;;2.65;1.52;;;25.40;39.80;;;;;;5052961;28;20024;-40
2022/08/12 03:03:05;;;;;;;2.35;1.70;;;25.40;39.90;;;;;;5053494;28;20033;-40
2022/08/12 03:05:32;;;;;;;3.70;1.40;;;25.40;40.00;;;;;;5052435;28;20020;-40
2022/08/12 03:08:03;;;;;;;3.08;1.73;;;25.40;40.00;;;;;;5048349;28;20039;-40
2022/08/12 03:10:34;;;;;;;2.80;1.20;;;25.30;40.00;;;;;;5052690;28;20041;-40
2022/08/12 03:13:02;;;;;;;3.38;1.70;;;25.30;40.00;;;;;;5048686;28;20053;-39
2022/08/12 03:15:30;;;;;;;3.58;1.67;;;25.30;40.10;;;;;;5032767;28;20443;-40
2022/08/12 03:18:05;;;;;;;2.15;1.50;;;25.30;40.10;;;;;;5033266;28;20029;-39
2022/08/12 03:20:36;;;;;;;1.90;1.27;;;25.30;40.10;;;;;;5032516;28;20061;-40
2022/08/12 03:23:05;;;;;;;2.35;1.40;;;25.20;40.10;;;;;;5030774;28;20034;-40
2022/08/12 03:25:33;;;;;;;2.33;1.48;;;25.20;40.10;;;;;;5029896;28;20040;-40
2022/08/12 03:27:59;;;;;;;3.03;2.47;;;25.20;40.10;;;;;;5032918;28;20029;-40
2022/08/12 03:30:26;;;;;;;2.95;1.60;;;25.20;40.10;;;;;;5032685;28;20037;-40
2022/08/12 03:32:54;;;;;;;1.65;1.35;;;25.20;40.20;;;;;;5032343;28;20029;-40
2022/08/12 03:35:25;;;;;;;2.33;1.80;;;25.20;40.30;;;;;;5032585;28;20080;-45
2022/08/12 03:37:55;;;;;;;2.33;1.70;;;25.10;40.30;;;;;;5032800;28;20025;-40
2022/08/12 04:02:44;;;;;;;2.75;1.40;;;25.00;40.60;;;;;;5031823;28;20079;-40
2022/08/12 04:05:11;;;;;;;1.90;1.33;;;24.90;40.50;;;;;;5032208;28;20108;-39
2022/08/12 04:07:38;;;;;;;3.17;1.67;;;25.00;40.50;;;;;;5031688;28;20025;-40
2022/08/12 04:10:05;;;;;;;2.97;1.40;;;24.90;40.40;;;;;;5032194;28;20041;-40
2022/08/12 04:15:18;;;;;;;2.10;1.45;;;25.00;40.40;;;;;;5029513;28;20113;-39
2022/08/12 04:17:46;;;;;;;2.10;1.40;;;24.90;40.50;;;;;;5031294;28;20033;-39
2022/08/12 04:20:18;;;;;;;1.88;1.52;;;24.90;40.40;;;;;;5032378;28;20037;-39
2022/08/12 04:22:44;;;;;;;1.75;1.38;;;24.80;40.50;;;;;;5031314;28;20053;-40
2022/08/12 04:25:11;;;;;;;3.88;1.77;;;24.90;40.50;;;;;;5031969;28;20124;-39
2022/08/12 04:27:38;;;;;;;1.60;1.38;;;24.90;40.50;;;;;;5031090;28;20052;-40
2022/08/12 04:30:06;;;;;;;7.03;1.50;;;24.90;40.50;;;;;;5029927;28;20037;-39
2022/08/12 04:32:33;;;;;;;2.00;1.35;;;24.90;40.50;;;;;;5029915;28;20478;-39
2022/08/12 04:34:59;;;;;;;2.15;1.45;;;24.90;40.50;;;;;;5032096;28;20498;-39
2022/08/12 04:37:24;;;;;;;2.20;1.40;;;24.90;40.60;;;;;;5030694;28;20033;-46
2022/08/12 04:39:51;;;;;;;3.40;1.77;;;24.80;40.50;;;;;;5032136;28;20033;-39
2022/08/12 04:42:18;;;;;;;1.98;1.30;;;24.80;40.60;;;;;;5032064;28;20121;-39
2022/08/12 04:44:44;;;;;;;3.25;1.50;;;24.80;40.60;;;;;;5031318;28;20022;-39
2022/08/12 04:47:12;;;;;;;5.40;2.28;;;24.80;40.70;;;;;;5015759;28;20041;-39
2022/08/12 04:49:39;;;;;;;1.77;1.38;;;24.80;40.60;;;;;;5031074;28;20111;-40
2022/08/12 04:52:05;;;;;;;5.60;1.90;;;24.80;40.70;;;;;;5031378;28;20451;-39
2022/08/12 04:54:32;;;;;;;5.40;1.70;;;24.80;41.40;;;;;;5031075;28;20061;-40
2022/08/12 04:56:59;;;;;;;6.47;2.30;;;24.80;40.90;;;;;;5031785;28;20041;-40
2022/08/12 04:59:25;;;;;;;2.85;1.52;;;24.80;40.80;;;;;;5031171;28;20036;-46
2022/08/12 05:01:52;;;;;;;2.08;1.70;;;24.80;40.80;;;;;;5031325;28;20022;-40
2022/08/12 05:04:20;;;;;;;3.28;1.20;;;24.80;40.90;;;;;;5026389;28;20056;-40
2022/08/12 05:06:46;;;;;;;2.22;1.63;;;24.80;40.90;;;;;;5030598;28;20029;-40
2022/08/12 05:09:13;;;;;;;2.40;1.70;;;24.70;40.90;;;;;;5031598;28;20036;-39
2022/08/12 05:11:39;;;;;;;3.42;1.50;;;24.80;40.90;;;;;;5030912;28;20028;-39
2022/08/12 05:14:05;;;;;;;3.25;1.58;;;24.70;40.80;;;;;;5045545;28;20049;-40
2022/08/12 05:16:31;;;;;;;2.38;1.85;;;24.80;41.10;;;;;;5050483;28;20025;-40
2022/08/12 05:18:57;;;;;;;1.90;1.65;;;24.70;41.10;;;;;;5051496;28;20040;-39
2022/08/12 05:21:23;;;;;;;2.60;1.60;;;24.70;41.20;;;;;;5046127;28;20075;-40
2022/08/12 05:23:49;;;;;;;3.15;1.83;;;24.70;41.20;;;;;;5050716;28;20406;-39
2022/08/12 05:26:15;;;;;;;4.10;1.77;;;24.80;41.30;;;;;;5051678;28;20107;-39
2022/08/12 05:28:40;;;;;;;3.03;1.80;;;24.70;41.30;;;;;;5050376;28;20082;-40
2022/08/12 05:31:06;;;;;;;3.45;1.75;;;24.70;41.20;;;;;;5051465;28;20485;-40
2022/08/12 05:33:39;;;;;;;2.25;1.67;;;24.70;40.80;;;;;;5049846;28;20109;-40
2022/08/12 05:36:07;;;;;;;3.55;1.90;;;24.70;41.10;;;;;;5053007;28;20021;-40
2022/08/12 05:41:19;;;;;;;3.25;1.40;;;24.70;41.20;;;;;;5049841;28;20024;-40
2022/08/12 05:43:50;;;;;;;2.70;1.88;;;24.70;41.20;;;;;;5053680;28;20104;-40
2022/08/12 05:46:15;;;;;;;2.90;1.83;;;24.80;41.20;;;;;;5058913;28;20029;-39
2022/08/12 05:48:41;;;;;;;4.05;2.40;;;24.80;41.30;;;;;;5049372;28;20044;-42
2022/08/12 05:51:09;;;;;;;2.95;1.73;;;24.80;41.20;;;;;;5049270;28;20439;-40
2022/08/12 05:53:36;;;;;;;3.55;1.67;;;24.70;41.00;;;;;;5048494;28;20471;-41
2022/08/12 05:56:03;;;;;;;2.42;1.38;;;24.70;41.00;;;;;;5050469;28;20060;-38
2022/08/12 05:58:29;;;;;;;4.78;1.80;;;24.70;41.20;;;;;;5054060;28;20090;-43
2022/08/12 06:00:55;;;;;;;2.92;1.95;;;24.70;41.20;;;;;;5054808;28;20032;-38
2022/08/12 06:03:21;;;;;;;2.83;1.98;;;24.70;41.20;;;;;;5054045;28;20040;-40
2022/08/12 06:05:48;;;;;;;2.90;1.80;;;24.70;41.10;;;;;;5053663;28;20029;-39
2022/08/12 06:08:16;;;;;;;3.45;1.80;;;24.70;41.30;;;;;;5054070;28;20033;-40
2022/08/12 06:10:42;;;;;;;5.45;1.85;;;24.70;41.50;;;;;;5052927;28;20037;-41
2022/08/12 06:13:08;;;;;;;3.13;1.75;;;24.70;41.60;;;;;;5051069;28;20060;-41
2022/08/12 06:15:38;;;;;;;1.58;1.38;;;24.80;41.30;;;;;;5053264;28;20108;-41
2022/08/12 06:18:06;;;;;;;4.53;1.88;;;24.80;41.20;;;;;;5054148;28;20466;-43
2022/08/12 06:20:32;;;;;;;1.42;1.30;;;24.80;41.10;;;;;;5053214;28;20458;-41
2022/08/12 06:22:58;;;;;;;2.25;1.30;;;24.80;41.20;;;;;;5054274;28;21072;-41
2022/08/12 06:25:26;;;;;;;2.13;1.70;;;24.80;41.30;;;;;;5036357;28;20104;-41
2022/08/12 06:27:52;;;;;;;2.85;1.60;;;24.80;41.20;;;;;;5053784;28;20036;-44
2022/08/12 06:30:21;;;;;;;3.72;1.52;;;24.80;41.20;;;;;;5050348;28;20029;-42
2022/08/12 06:32:48;;;;;;;3.47;1.60;;;24.80;41.20;;;;;;5048239;28;20044;-42
2022/08/12 06:35:15;;;;;;;2.72;1.67;;;24.80;41.20;;;;;;5053659;28;20025;-42
2022/08/12 06:37:44;;;;;;;3.45;1.65;;;24.80;41.20;;;;;;5052635;28;20036;-42
2022/08/12 06:40:11;;;;;;;3.58;1.70;;;24.80;41.20;;;;;;5053307;28;20112;-40
2022/08/12 06:42:47;;;;;;;2.20;1.70;;;24.80;41.10;;;;;;5052240;28;20505;-39
2022/08/12 06:45:14;;;;;;;3.78;1.85;;;24.70;41.00;;;;;;5048896;28;20032;-39
2022/08/12 06:47:40;;;;;;;2.38;1.48;;;24.80;41.20;;;;;;5062565;28;20017;-39
2022/08/12 06:50:07;;;;;;;3.47;1.90;;;24.80;41.20;;;;;;5053039;28;20099;-39
2022/08/12 06:52:33;;;;;;;1.58;1.40;;;24.80;41.10;;;;;;5052436;28;20065;-45
2022/08/12 06:54:58;;;;;;;3.42;2.10;;;24.80;41.30;;;;;;5052416;28;20060;-39
2022/08/12 06:57:26;;;;;;;3.25;1.60;;;24.80;41.20;;;;;;5050701;28;20021;-39
2022/08/12 06:59:53;;;;;;;4.93;1.98;;;24.80;41.20;;;;;;5051535;28;20540;-45
2022/08/12 07:02:21;;;;;;;5.15;1.60;;;24.80;41.20;;;;;;5052978;28;20386;-39
2022/08/12 07:04:47;;;;;;;3.30;1.70;;;24.80;41.00;;;;;;5052228;28;20059;-39
2022/08/12 07:07:13;;;;;;;3.13;1.80;;;24.80;40.90;;;;;;5051941;28;20025;-39
2022/08/12 07:09:41;;;;;;;3.22;1.73;;;24.80;41.00;;;;;;5052180;28;20532;-39
2022/08/12 07:12:14;;;;;;;4.88;1.80;;;24.90;41.00;;;;;;5052778;28;20033;-40
2022/08/12 07:14:39;;;;;;;8.23;2.00;;;24.90;41.00;;;;;;5051636;28;20047;-39
2022/08/12 07:17:06;;;;;;;6.05;1.70;;;24.90;40.80;;;;;;5052363;28;20033;-39
2022/08/12 07:19:33;;;;;;;4.47;1.83;;;24.90;40.80;;;;;;5052090;28;20044;-46
2022/08/12 07:22:05;;;;;;;1.77;1.40;;;24.90;41.00;;;;;;5052734;28;20021;-39
2022/08/12 07:24:31;;;;;;;2.35;1.58;;;24.90;40.90;;;;;;5052288;28;20036;-48
2022/08/12 07:26:57;;;;;;;2.58;1.85;;;24.90;40.70;;;;;;5053134;28;20021;-39
2022/08/12 07:29:24;;;;;;;3.15;1.45;;;25.00;40.70;;;;;;5049877;28;20025;-42
2022/08/12 07:31:51;;;;;;;5.28;1.70;;;24.90;40.80;;;;;;5050630;28;20108;-42
2022/08/12 07:34:16;;;;;;;2.38;1.60;;;24.90;40.50;;;;;;5050063;28;20032;-41
2022/08/12 07:36:42;;;;;;;3.33;1.77;;;24.90;40.40;;;;;;5056818;28;20021;-39
2022/08/12 07:39:08;;;;;;;2.72;1.65;;;24.90;40.50;;;;;;5052402;28;20044;-41
2022/08/12 07:41:33;;;;;;;4.68;2.00;;;24.90;40.20;;;;;;5050525;28;20021;-44
2022/08/12 07:44:03;;;;;;;3.22;1.50;;;24.90;40.30;;;;;;5051367;28;20025;-39
2022/08/12 07:46:36;;;;;;;4.00;1.63;;;24.90;40.60;;;;;;5051191;28;20466;-39
2022/08/12 07:49:05;;;;;;;3.95;1.75;;;25.10;40.50;;;;;;5051961;28;20040;-39
2022/08/12 07:51:32;;;;;;;1.67;1.40;;;25.20;40.60;;;;;;5050825;28;20033;-45
2022/08/12 07:53:59;;;;;;;3.92;1.40;;;25.20;40.80;;;;;;5050446;28;20033;-39
2022/08/12 07:56:26;;;;;;;3.25;1.20;;;25.30;41.00;;;;;;5057305;28;20114;-39
2022/08/12 07:58:52;;;;;;;6.85;1.77;;;25.30;41.10;;;;;;5049929;28;20080;-39
2022/08/12 08:01:21;;;;;;;2.67;1.50;;;25.30;41.20;;;;;;5045919;28;20052;-39
2022/08/12 08:06:36;;;;;;;6.00;1.55;;;25.40;41.30;;;;;;5045682;28;20036;-40
2022/08/12 08:09:03;;;;;;;3.15;1.35;;;25.40;41.30;;;;;;5050873;28;20040;-40
2022/08/12 08:14:13;;;;;;;3.42;1.50;;;25.50;41.30;;;;;;5053023;28;20099;-40
2022/08/12 08:16:40;;;;;;;4.60;1.75;;;25.60;41.50;;;;;;5050982;28;20454;-40
2022/08/12 08:19:08;;;;;;;2.50;1.40;;;25.50;41.40;;;;;;5051522;28;20033;-40
2022/08/12 08:21:34;;;;;;;1.98;1.25;;;25.60;41.60;;;;;;5049530;28;20115;-46
2022/08/12 08:24:16;;;;;;;1.40;1.20;;;25.60;41.70;;;;;;5048694;28;20060;-39
2022/08/12 08:26:42;;;;;;;2.20;1.40;;;25.60;42.00;;;;;;5051835;28;20059;-40
2022/08/12 08:29:08;;;;;;;2.08;1.35;;;25.60;42.00;;;;;;5051142;28;20044;-39
2022/08/12 08:31:35;;;;;;;2.20;1.80;;;25.60;42.10;;;;;;5043078;28;20426;-47
2022/08/12 08:34:00;;;;;;;2.60;1.50;;;25.60;42.00;;;;;;5048194;28;20516;-40
2022/08/12 08:36:26;;;;;;;2.35;1.30;;;25.60;41.90;;;;;;5051259;28;20029;-40
2022/08/12 08:38:52;;;;;;;2.08;1.40;;;25.60;41.90;;;;;;5046044;28;20029;-39
2022/08/12 08:44:03;;;;;;;3.38;1.40;;;25.60;42.10;;;;;;5050689;28;20605;-40
2022/08/12 08:46:28;;;;;;;1.65;1.10;;;25.70;42.20;;;;;;5050701;28;20053;-39
2022/08/12 08:48:55;;;;;;;3.10;2.15;;;25.60;42.00;;;;;;5050509;28;20075;-40
2022/08/12 08:51:24;;;;;;;2.47;1.55;;;25.70;42.10;;;;;;5050250;28;20032;-47
2022/08/12 08:53:52;;;;;;;2.08;1.45;;;25.70;42.10;;;;;;5049668;28;20056;-39
2022/08/12 08:56:18;;;;;;;3.03;1.50;;;25.70;42.00;;;;;;5050627;28;20467;-39
2022/08/12 08:58:44;;;;;;;4.57;1.48;;;25.70;42.00;;;;;;5049595;28;20036;-39
2022/08/12 09:01:10;;;;;;;2.63;1.30;;;25.70;42.00;;;;;;5050649;28;20478;-39
2022/08/12 09:03:36;;;;;;;3.25;1.10;;;25.70;42.00;;;;;;5050340;28;20021;-40
2022/08/12 09:06:01;;;;;;;3.67;1.38;;;25.70;41.90;;;;;;5050744;28;20488;-39
2022/08/12 09:08:28;;;;;;;2.72;1.10;;;25.70;41.90;;;;;;5050765;28;20025;-39
2022/08/12 09:10:57;;;;;;;1.35;1.10;;;25.70;41.90;;;;;;5050139;28;20037;-39
2022/08/12 09:13:33;;;;;;;2.97;1.42;;;25.70;41.90;;;;;;5050245;28;20490;-43
2022/08/12 09:15:59;;;;;;;2.42;1.25;;;25.70;41.70;;;;;;5044728;28;20021;-40
2022/08/12 09:18:26;;;;;;;2.88;1.30;;;25.70;41.70;;;;;;5040446;28;20036;-39
2022/08/12 09:20:51;;;;;;;1.88;1.10;;;25.70;41.70;;;;;;5052298;28;20120;-39
2022/08/12 09:23:17;;;;;;;2.47;1.00;;;25.80;41.80;;;;;;5051059;28;20108;-39
2022/08/12 09:25:47;;;;;;;1.25;1.02;;;25.80;41.70;;;;;;5049366;28;20025;-42
2022/08/12 09:28:13;;;;;;;1.65;1.10;;;25.80;41.70;;;;;;5048812;28;20025;-41
2022/08/12 09:30:51;;;;;;;2.25;1.10;;;25.80;42.10;;;;;;5051510;28;20032;-39
2022/08/12 09:33:16;;;;;;;1.83;1.13;;;25.80;41.40;;;;;;5039290;28;20033;-44
2022/08/12 09:35:45;;;;;;;1.60;1.30;;;25.80;41.30;;;;;;5051514;28;20022;-40
2022/08/12 09:38:16;;;;;;;1.45;1.10;;;25.80;41.30;;;;;;5041768;28;20029;-39
2022/08/12 09:40:42;;;;;;;3.73;1.43;;;25.80;41.40;;;;;;5035474;28;20041;-39
2022/08/12 09:45:52;;;;;;;1.95;1.25;;;25.80;41.30;;;;;;5035154;28;20111;-39
2022/08/12 09:48:18;;;;;;;1.15;1.05;;;25.80;41.40;;;;;;5021820;28;20414;-40
2022/08/12 09:50:46;;;;;;;1.73;1.10;;;25.80;41.40;;;;;;5041785;28;20033;-40
2022/08/12 09:53:19;;;;;;;2.45;1.13;;;25.80;41.50;;;;;;5035049;28;20022;-40
2022/08/12 09:55:50;;;;;;;2.47;1.42;;;25.80;41.50;;;;;;5036027;28;20022;-40
2022/08/12 09:58:16;;;;;;;3.08;1.10;;;25.80;41.50;;;;;;5043072;28;20021;-39
2022/08/12 10:00:43;;;;;;;1.60;1.13;;;25.80;41.60;;;;;;5038799;28;20088;-40
2022/08/12 10:03:11;;;;;;;1.98;1.08;;;25.80;41.70;;;;;;5035280;28;20041;-41
2022/08/12 10:05:43;;;;;;;1.30;1.10;;;25.90;41.80;;;;;;5036069;28;20030;-45
2022/08/12 10:08:12;;;;;;;1.48;1.20;;;25.80;41.80;;;;;;5037762;28;20021;-39
2022/08/12 10:13:40;;;;;;;3.33;1.17;;;25.90;41.70;;;;;;5033241;28;20464;-42
2022/08/12 10:13:40;;;;;;;1.35;1.00;;;25.80;41.70;;;;;;5028234;28;20056;-43
2022/08/12 10:16:27;;;;;;;1.52;1.17;;;25.80;41.70;;;;;;5026879;28;20455;-42
2022/08/12 10:19:01;;;;;;;3.58;1.10;;;25.90;41.70;;;;;;5031553;28;20622;-42
2022/08/12 10:21:30;;;;;;;1.40;1.30;;;25.90;41.60;;;;;;5033810;28;20125;-40
2022/08/12 10:23:56;;;;;;;1.73;1.00;;;25.90;41.70;;;;;;5032716;28;20048;-41
2022/08/12 10:31:52;;;;;;;1.60;1.30;;;25.90;41.90;;;;;;5031119;28;20109;-41
2022/08/12 10:34:22;;;;;;;2.65;1.30;;;25.90;41.90;;;;;;5033250;28;20514;-39
2022/08/12 10:36:54;;;;;;;1.83;1.15;;;25.90;41.90;;;;;;5032495;28;20036;-40
2022/08/12 10:39:22;;;;;;;1.83;1.33;;;25.90;42.00;;;;;;5033127;28;20032;-39
2022/08/12 10:44:32;;;;;;;3.15;1.70;;;25.90;42.30;;;;;;5032467;28;20125;-39
2022/08/12 10:46:58;;;;;;;9.52;1.70;;;25.90;42.40;;;;;;5032700;28;20044;-40
2022/08/12 10:49:30;;;;;;;8.40;1.58;;;25.90;42.40;;;;;;5033055;28;20467;-40
2022/08/12 10:51:56;;;;;;;5.88;1.80;;;25.90;42.50;;;;;;5032409;28;20017;-39
2022/08/12 10:54:26;;;;;;;4.63;1.98;;;25.90;42.60;;;;;;5030385;28;20048;-40
2022/08/12 10:56:52;;;;;;;4.65;1.75;;;25.90;42.70;;;;;;5031781;28;20068;-40
2022/08/12 10:59:20;;;;;;;3.80;1.40;;;25.90;42.70;;;;;;5032968;28;20042;-40
2022/08/12 11:01:46;;;;;;;6.63;2.90;;;25.90;42.80;;;;;;5032324;28;20030;-39
2022/08/12 11:04:12;;;;;;;6.13;2.00;;;25.90;43.50;;;;;;5033188;28;20427;-39
2022/08/12 11:06:46;;;;;;;4.78;1.67;;;25.90;42.80;;;;;;5032462;28;20433;-48
2022/08/12 11:09:30;;;;;;;4.60;2.00;;;25.90;42.80;;;;;;5032960;28;20040;-40
2022/08/12 11:11:58;;;;;;;4.90;2.08;;;25.90;42.80;;;;;;5031920;28;20475;-39
2022/08/12 11:14:27;;;;;;;4.45;1.80;;;25.90;42.80;;;;;;5047105;28;20041;-40
2022/08/12 11:16:57;;;;;;;3.42;2.00;;;25.90;42.70;;;;;;5051609;28;20482;-40
2022/08/12 11:19:29;;;;;;;3.15;1.50;;;25.90;42.70;;;;;;5052579;28;20032;-40
2022/08/12 11:21:56;;;;;;;2.05;1.35;;;25.90;42.60;;;;;;5035025;28;20032;-39
2022/08/12 11:24:23;;;;;;;4.43;1.33;;;25.90;42.60;;;;;;5052603;28;20028;-39
2022/08/12 11:26:50;;;;;;;4.03;1.83;;;25.90;42.60;;;;;;5046794;28;20477;-39
2022/08/12 11:29:17;;;;;;;6.53;1.33;;;25.90;42.50;;;;;;5052702;28;20040;-39
2022/08/12 11:31:43;;;;;;;7.90;1.95;;;25.90;42.50;;;;;;5048483;28;20041;-40
2022/08/12 11:34:08;;;;;;;3.70;1.80;;;25.90;42.50;;;;;;5052282;28;20029;-39
2022/08/12 11:36:34;;;;;;;3.30;1.48;;;25.90;42.50;;;;;;5052511;28;20028;-40
2022/08/12 11:39:00;;;;;;;3.78;1.30;;;25.90;42.40;;;;;;5051515;28;20032;-39
2022/08/12 11:41:25;;;;;;;3.90;1.70;;;25.90;42.40;;;;;;5052306;28;20032;-40
2022/08/12 11:43:51;;;;;;;4.55;1.60;;;25.90;42.40;;;;;;5051061;28;20079;-40
2022/08/12 11:46:20;;;;;;;3.97;1.70;;;25.90;42.40;;;;;;5051755;28;20028;-39
2022/08/12 11:48:46;;;;;;;4.47;1.60;;;25.90;42.40;;;;;;5051155;28;20560;-40
2022/08/12 11:51:12;;;;;;;3.00;1.73;;;25.90;42.40;;;;;;5052097;28;20049;-39
2022/08/12 11:53:37;;;;;;;5.53;1.65;;;25.90;42.40;;;;;;5050976;28;20037;-44
2022/08/12 11:56:07;;;;;;;2.50;1.67;;;26.00;42.40;;;;;;5051869;28;20043;-39
2022/08/12 11:58:33;;;;;;;4.45;1.30;;;25.90;42.30;;;;;;5045838;28;20470;-39
2022/08/12 12:00:59;;;;;;;1.63;1.30;;;25.90;42.20;;;;;;5050909;28;20021;-39
2022/08/12 12:03:25;;;;;;;3.92;1.45;;;26.00;42.20;;;;;;5052048;28;20100;-39
2022/08/12 12:05:50;;;;;;;2.80;1.25;;;25.90;42.10;;;;;;5050826;28;20028;-39
2022/08/12 12:08:23;;;;;;;7.32;1.52;;;25.90;42.20;;;;;;5051348;28;20079;-39
2022/08/12 12:10:50;;;;;;;3.35;1.70;;;26.00;42.40;;;;;;5050868;28;20036;-41
2022/08/12 12:13:17;;;;;;;6.60;1.63;;;26.00;42.90;;;;;;5051551;28;20052;-40
2022/08/12 12:15:42;;;;;;;5.45;1.70;;;26.00;44.00;;;;;;5050662;28;20079;-41
2022/08/12 12:18:29;;;;;;;4.80;1.60;;;26.00;43.40;;;;;;5051683;28;20021;-39
2022/08/12 12:20:57;;;;;;;4.20;1.30;;;26.00;43.10;;;;;;5046492;28;20078;-42
2022/08/12 12:23:23;;;;;;;3.63;1.33;;;26.00;43.10;;;;;;5051489;28;20029;-41
2022/08/12 12:25:49;;;;;;;2.58;1.30;;;26.00;43.20;;;;;;5050419;28;20028;-39
2022/08/12 12:28:15;;;;;;;7.82;1.50;;;26.00;43.40;;;;;;5051671;28;20049;-39
2022/08/12 12:30:42;;;;;;;3.70;1.10;;;26.00;43.40;;;;;;5050844;28;20032;-46
2022/08/12 12:33:09;;;;;;;5.68;1.58;;;26.00;43.10;;;;;;5051406;28;20025;-40
2022/08/12 12:35:35;;;;;;;4.10;1.02;;;26.10;42.90;;;;;;5051516;28;20020;-39
2022/08/12 12:38:10;;;;;;;3.33;1.45;;;26.10;43.50;;;;;;5050189;28;20561;-39
2022/08/12 12:40:37;;;;;;;3.13;1.38;;;26.00;43.60;;;;;;5052686;28;20386;-40
2022/08/12 12:43:03;;;;;;;3.03;1.30;;;26.10;43.80;;;;;;5041970;28;20032;-39
2022/08/12 12:45:31;;;;;;;4.45;1.50;;;26.10;44.10;;;;;;5051190;28;20462;-39
2022/08/12 12:47:57;;;;;;;2.35;1.33;;;26.10;44.10;;;;;;5058737;28;20040;-39
2022/08/12 12:50:25;;;;;;;2.25;1.42;;;26.10;44.00;;;;;;5051309;28;20091;-39
2022/08/12 12:52:52;;;;;;;4.63;1.10;;;26.00;43.80;;;;;;5032770;28;20375;-39
2022/08/12 12:55:18;;;;;;;3.05;0.95;;;26.10;43.80;;;;;;5051332;28;20032;-39
2022/08/12 12:57:44;;;;;;;2.60;1.30;;;26.10;44.00;;;;;;5050400;28;20482;-46
2022/08/12 13:00:15;;;;;;;1.92;1.20;;;26.10;44.00;;;;;;5050265;28;20033;-40
2022/08/12 13:02:51;;;;;;;3.10;1.20;;;26.10;44.10;;;;;;5049035;28;20432;-47
2022/08/12 13:05:30;;;;;;;2.83;1.13;;;26.10;44.20;;;;;;5052509;28;20025;-40
2022/08/12 13:07:57;;;;;;;4.70;1.45;;;26.10;44.00;;;;;;5054394;28;20025;-40
2022/08/12 13:10:24;;;;;;;2.83;1.30;;;26.10;44.10;;;;;;5055493;28;20032;-40
2022/08/12 13:12:50;;;;;;;2.50;1.25;;;26.10;44.20;;;;;;5054592;28;20029;-40
2022/08/12 13:15:16;;;;;;;2.95;2.38;;;26.10;44.30;;;;;;5055034;28;20394;-39
2022/08/12 13:17:52;;;;;;;4.13;1.23;;;26.10;44.40;;;;;;5054775;28;20075;-48
2022/08/12 13:20:20;;;;;;;1.85;0.90;;;26.10;44.50;;;;;;5056893;28;20112;-40
2022/08/12 13:22:46;;;;;;;9.18;1.55;;;26.20;44.50;;;;;;5054539;28;20103;-40
2022/08/12 13:25:14;;;;;;;5.93;1.40;;;26.10;44.50;;;;;;5055155;28;20021;-39
2022/08/12 13:27:46;;;;;;;4.80;1.38;;;26.10;44.40;;;;;;5054483;28;20428;-39
2022/08/12 13:30:19;;;;;;;16.33;2.88;;;26.10;44.50;;;;;;5046310;28;20037;-39
2022/08/12 13:32:49;;;;;;;16.30;2.63;;;26.20;44.70;;;;;;5048415;28;20063;-46
2022/08/12 13:35:16;;;;;;;11.43;2.35;;;26.20;44.70;;;;;;5062686;28;20470;-40
2022/08/12 13:37:55;;;;;;;15.00;2.25;;;26.20;44.40;;;;;;5054846;28;20033;-47
2022/08/12 13:40:28;;;;;;;7.15;2.50;;;26.20;44.80;;;;;;5054322;28;20036;-39
2022/08/12 13:42:57;;;;;;;4.53;1.80;;;26.20;44.80;;;;;;5053320;28;20059;-40
2022/08/12 13:45:28;;;;;;;10.77;1.85;;;26.20;44.90;;;;;;5051266;28;20105;-41
2022/08/12 13:47:58;;;;;;;5.43;1.55;;;26.20;44.70;;;;;;5054594;28;20036;-43
2022/08/12 13:50:38;;;;;;;7.32;1.48;;;26.20;44.70;;;;;;5058200;28;20393;-40
2022/08/12 13:53:15;;;;;;;6.38;1.70;;;26.20;45.20;;;;;;5054456;28;20017;-40
2022/08/12 13:55:48;;;;;;;3.33;1.38;;;26.20;45.00;;;;;;5050756;28;20032;-41
2022/08/12 13:58:15;;;;;;;6.13;1.70;;;26.20;45.20;;;;;;5057752;28;20555;-40
2022/08/12 14:00:50;;;;;;;4.97;1.50;;;26.20;45.50;;;;;;5059074;28;20481;-39
2022/08/12 14:03:21;;;;;;;9.73;2.17;;;26.20;45.40;;;;;;5053383;28;20044;-39
2022/08/12 14:05:47;;;;;;;7.63;1.60;;;26.20;45.60;;;;;;5058437;28;20040;-40
2022/08/12 14:08:14;;;;;;;4.25;1.58;;;26.20;45.60;;;;;;5054510;28;20052;-39
2022/08/12 14:10:52;;;;;;;7.47;2.17;;;26.20;45.70;;;;;;5059958;28;20067;-40
2022/08/12 14:13:20;;;;;;;6.50;1.70;;;26.20;45.40;;;;;;5053546;28;20160;-40
2022/08/12 14:15:49;;;;;;;3.28;1.30;;;26.30;45.40;;;;;;5041523;28;20432;-46
2022/08/12 14:18:21;;;;;;;2.92;1.40;;;26.40;41.30;;;;;;5039040;28;20021;-40
2022/08/12 14:20:50;;;;;;;3.05;1.10;;;26.40;40.00;;;;;;5038852;28;20053;-41
2022/08/12 14:23:17;;;;;;;1.73;1.25;;;26.50;40.30;;;;;;5044550;28;20083;-41
2022/08/12 14:25:43;;;;;;;4.70;1.25;;;26.60;38.20;;;;;;5045221;28;20028;-41
2022/08/12 14:28:14;;;;;;;3.70;0.95;;;26.60;38.20;;;;;;5044960;28;20025;-41
2022/08/12 14:30:55;;;;;;;2.27;1.10;;;26.60;38.00;;;;;;5048165;28;20114;-40
2022/08/12 14:33:27;;;;;;;1.80;1.00;;;26.60;38.00;;;;;;5041082;28;20026;-41
2022/08/12 14:35:52;;;;;;;;;;;26.60;36.80;;;;;;5040267;28;20041;-40
2022/08/12 14:38:29;;;;;;;3.83;1.00;;;26.70;36.60;;;;;;5040078;28;19905;-40
2022/08/12 14:40:57;;;;;;;1.55;1.23;;;26.80;36.40;;;;;;5039328;28;20036;-40
2022/08/12 14:43:27;;;;;;;2.88;1.10;;;26.80;36.30;;;;;;5044482;28;20104;-39